Terminal Aerodrome Forecast
Issued by NWS Wilmington, OH

Current Version | Previous Version | Text Only | Print | Product List | Glossary Off
Versions: 1 2 3 4 5 6 7 8 9 10 11 12 13 14 15 16 17 18 19 20 21 22 23

000
FTUS41 KILN 141740
TAFCVG
TAF
KCVG 141740Z 1418/1524 19006KT P6SM BKN060
     FM150100 VRB02KT P6SM SCT090
     FM151000 00000KT 5SM BR SKC
     FM151300 VRB02KT P6SM FEW030
     FM151700 27006KT P6SM SCT035=

USA.gov is the U.S. government's official web portal to all federal, state and local government web resources and services.